Adams, North Dakota
Current Conditions -  °F | °C
As of 1:55 AM on Saturday 25 Oct 2014 (Local Time) from KD55 Reporting Station
Clear Clear  
Wind Chill: -2°   Ceiling: Unl
Heat Index:   Visibility: 10mi
Dew Point: -2°   Wind: 10mph
Humidity: 75%   Direction: 280°W
Pressure: 29.94"   Gusts: NA
Location:  48.42°N, 98.08°W
Report Text: KD55 250655Z AUTO 28009KT 10SM CLR 02/M02 A2994 RMK AO2
Loading
Personal Weather Stations






























Interactive Weather Map
Tropical Storm Tracking
New forecast layout! Learn more

10-Day Weather Forecast

Advertisements
Track Severe Weather on mobile